Dripping Springs' Hourly Summary for Thursday, May 10, 2018
Hour Temp
(f)
RH
(%)
Solar Rad.
(MJ/m2)
Rainfall
(in)
Wind
(mph)
5/10/2018 12:00 AM 70 64 0 0 5.78
5/10/2018 1:00 AM 68 74 0 0 6.22
5/10/2018 2:00 AM 67 88 0 0 7.09
5/10/2018 3:00 AM 67 88 0 0 7.41
5/10/2018 4:00 AM 67 88 0 0 7.41
5/10/2018 5:00 AM 67 89 0 0 6.61
5/10/2018 6:00 AM 67 89 0.01 0 6.66
5/10/2018 7:00 AM 67 89 0.18 0 6.66
5/10/2018 8:00 AM 69 88 0.67 0 7.3
5/10/2018 9:00 AM 70 80 0.84 0 8.11
5/10/2018 10:00 AM 73 73 2.47 0 8.22
5/10/2018 11:00 AM 76 59 2.69 0 8.3
5/10/2018 12:00 PM 78 52 3.16 0 8.3
5/10/2018 1:00 PM 80 45 3.54 0 8.65
5/10/2018 2:00 PM 82 41 3.54 0 9.01
5/10/2018 3:00 PM 83 40 3.41 0 9.01
5/10/2018 4:00 PM 84 39 2.52 0 8.72
5/10/2018 5:00 PM 84 40 1.95 0 8.54
5/10/2018 6:00 PM 84 40 1.92 0 8.39
5/10/2018 7:00 PM 84 37 0.41 0 8.32
5/10/2018 8:00 PM 82 41 0.31 0 5.99
5/10/2018 9:00 PM 79 51 0.02 0 5.21
5/10/2018 10:00 PM 76 66 0 0 8.29
5/10/2018 11:00 PM 75 74 0 0 8.29
Data Summary 74 63 27.64 0.00 7.60